createdAt,value
2023-03-07T00:00:08.370Z,10.20
2023-03-07T00:02:37.757Z,10.73
2023-03-07T00:05:06.563Z,10.50
2023-03-07T00:07:35.265Z,10.40
2023-03-07T00:10:03.149Z,10.98
2023-03-07T00:12:31.111Z,10.45
2023-03-07T00:14:58.970Z,11.00
2023-03-07T00:17:27.030Z,11.90
2023-03-07T00:19:57.758Z,9.80
2023-03-07T00:22:25.818Z,11.23
2023-03-07T00:24:53.706Z,11.30
2023-03-07T00:27:21.667Z,10.52
2023-03-07T00:29:50.290Z,10.40
2023-03-07T00:32:18.455Z,10.93
2023-03-07T00:34:46.439Z,11.40
2023-03-07T00:37:15.784Z,10.68
2023-03-07T00:39:43.821Z,10.57
2023-03-07T00:42:11.891Z,10.25
2023-03-07T00:44:42.373Z,10.25
2023-03-07T00:47:10.534Z,9.50
2023-03-07T00:49:38.519Z,10.43
2023-03-07T00:52:07.007Z,10.52
2023-03-07T00:54:39.626Z,10.60
2023-03-07T00:57:07.670Z,11.48
2023-03-07T00:59:35.686Z,8.50
2023-03-07T01:02:03.639Z,9.93
2023-03-07T01:04:31.922Z,10.75
2023-03-07T01:06:59.934Z,11.35
2023-03-07T01:09:28.063Z,12.02
2023-03-07T01:11:57.465Z,12.07
2023-03-07T01:14:26.762Z,9.18
2023-03-07T01:16:54.795Z,9.80
2023-03-07T01:19:24.247Z,11.07
2023-03-07T01:21:56.713Z,11.73
2023-03-07T01:24:24.844Z,10.70
2023-03-07T01:26:53.499Z,10.07
2023-03-07T01:29:25.214Z,10.20
2023-03-07T01:31:53.712Z,11.57
2023-03-07T01:34:21.927Z,11.48
2023-03-07T01:36:51.952Z,10.45
2023-03-07T01:39:20.163Z,8.85
2023-03-07T01:42:00.775Z,10.27
2023-03-07T01:44:32.718Z,11.23
2023-03-07T01:47:01.720Z,9.80
2023-03-07T01:49:41.925Z,8.93
2023-03-07T01:52:14.368Z,10.52
2023-03-07T01:54:50.492Z,10.73
2023-03-07T01:57:23.037Z,10.95
2023-03-07T01:59:55.799Z,9.90
2023-03-07T02:02:24.566Z,11.98
2023-03-07T02:05:01.141Z,10.10
2023-03-07T02:07:32.600Z,11.23
2023-03-07T02:10:02.357Z,11.55
2023-03-07T02:12:30.604Z,10.73
2023-03-07T02:15:00.390Z,11.60
2023-03-07T02:17:28.840Z,10.57
2023-03-07T02:20:14.115Z,11.02
2023-03-07T02:22:42.715Z,12.05
2023-03-07T02:25:19.297Z,12.55
2023-03-07T02:27:53.040Z,12.55
2023-03-07T02:30:22.184Z,13.23
2023-03-07T02:32:52.958Z,10.73
2023-03-07T02:35:23.253Z,12.00
2023-03-07T02:37:56.721Z,11.90
2023-03-07T02:40:26.781Z,11.15
2023-03-07T02:42:58.354Z,11.15
2023-03-07T02:45:26.443Z,11.90
2023-03-07T02:47:54.318Z,11.00
2023-03-07T02:50:22.567Z,10.93
2023-03-07T02:52:53.492Z,11.10
2023-03-07T02:55:21.432Z,11.77
2023-03-07T02:57:57.781Z,10.40
2023-03-07T03:00:26.097Z,10.27
2023-03-07T03:02:54.073Z,11.50
2023-03-07T03:05:22.220Z,11.75
2023-03-07T03:07:51.857Z,10.70
2023-03-07T03:10:19.906Z,10.48
2023-03-07T03:12:48.274Z,11.30
2023-03-07T03:15:18.219Z,9.30
2023-03-07T03:17:47.531Z,12.13
2023-03-07T03:20:17.084Z,11.07
2023-03-07T03:22:44.969Z,11.48
2023-03-07T03:25:15.021Z,9.88
2023-03-07T03:27:44.930Z,10.95
2023-03-07T03:30:15.388Z,10.60
2023-03-07T03:32:44.955Z,11.93
2023-03-07T03:35:16.101Z,10.57
2023-03-07T03:37:44.866Z,10.10
2023-03-07T03:40:17.363Z,11.15
2023-03-07T03:42:46.904Z,11.52
2023-03-07T03:45:17.240Z,12.32
2023-03-07T03:47:48.532Z,11.68
2023-03-07T03:50:17.300Z,11.90
2023-03-07T03:52:45.443Z,11.90
2023-03-07T03:55:13.817Z,10.93
2023-03-07T03:57:41.991Z,13.38
2023-03-07T04:00:14.797Z,12.55
2023-03-07T04:02:43.594Z,11.73
2023-03-07T04:05:17.613Z,12.60
2023-03-07T04:07:45.641Z,11.05
2023-03-07T04:10:13.574Z,11.90
2023-03-07T04:12:41.622Z,11.40
2023-03-07T04:15:10.305Z,11.13
2023-03-07T04:17:39.529Z,12.50
2023-03-07T04:20:14.247Z,10.40
2023-03-07T04:22:43.864Z,12.90
2023-03-07T04:25:12.665Z,10.98
2023-03-07T04:27:40.593Z,12.25
2023-03-07T04:30:10.298Z,10.68
2023-03-07T04:32:39.442Z,11.90
2023-03-07T04:35:08.240Z,10.85
2023-03-07T04:37:36.356Z,9.98
2023-03-07T04:40:06.439Z,10.65
2023-03-07T04:42:34.392Z,12.45
2023-03-07T04:45:04.737Z,11.90
2023-03-07T04:47:32.920Z,12.60
2023-03-07T04:50:03.363Z,10.75
2023-03-07T04:52:32.792Z,10.38
2023-03-07T04:55:00.809Z,11.85
2023-03-07T04:57:30.206Z,10.48
2023-03-07T04:59:58.501Z,11.00
2023-03-07T05:02:26.604Z,11.30
2023-03-07T05:04:54.649Z,12.77
2023-03-07T05:07:23.418Z,12.73
2023-03-07T05:09:52.421Z,11.52
2023-03-07T05:12:20.937Z,11.45
2023-03-07T05:14:50.306Z,10.55
2023-03-07T05:17:18.479Z,11.60
2023-03-07T05:19:46.770Z,10.80
2023-03-07T05:22:14.820Z,10.55
2023-03-07T05:24:44.735Z,11.43
2023-03-07T05:27:12.760Z,10.85
2023-03-07T05:29:40.863Z,10.57
2023-03-07T05:32:11.198Z,12.77
2023-03-07T05:34:40.195Z,11.68
2023-03-07T05:37:08.474Z,11.70
2023-03-07T05:39:36.547Z,10.80
2023-03-07T05:42:05.714Z,11.65
2023-03-07T05:44:34.665Z,10.60
2023-03-07T05:47:04.559Z,12.63
2023-03-07T05:49:34.558Z,11.43
2023-03-07T05:52:02.719Z,11.63
2023-03-07T05:54:31.019Z,10.95
2023-03-07T05:56:59.137Z,11.75
2023-03-07T05:59:27.571Z,9.70
2023-03-07T06:01:55.716Z,10.43
2023-03-07T06:04:23.951Z,10.52
2023-03-07T06:06:53.536Z,11.15
2023-03-07T06:09:22.360Z,10.15
2023-03-07T06:11:51.687Z,9.52
2023-03-07T06:14:19.891Z,11.23
2023-03-07T06:16:48.058Z,11.23
2023-03-07T06:19:16.589Z,9.82
2023-03-07T06:21:45.337Z,12.32
2023-03-07T06:24:15.073Z,11.88
2023-03-07T06:26:44.304Z,11.95
2023-03-07T06:29:12.641Z,10.05
2023-03-07T06:31:40.940Z,13.93
2023-03-07T06:34:09.767Z,12.43
2023-03-07T06:36:37.871Z,12.20
2023-03-07T06:39:06.080Z,12.25
2023-03-07T06:41:37.182Z,10.57
2023-03-07T06:44:06.588Z,11.20
2023-03-07T06:46:35.846Z,12.35
2023-03-07T06:49:09.694Z,11.52
2023-03-07T06:51:38.276Z,10.95
2023-03-07T06:54:07.717Z,11.70
2023-03-07T06:56:37.728Z,10.57
2023-03-07T06:59:05.982Z,11.38
2023-03-07T07:01:35.766Z,11.45
2023-03-07T07:04:04.835Z,10.25
2023-03-07T07:06:33.340Z,11.05
2023-03-07T07:09:01.447Z,11.57
2023-03-07T07:11:35.052Z,10.38
2023-03-07T07:14:06.036Z,12.07
2023-03-07T07:16:36.424Z,10.57
2023-03-07T07:19:05.396Z,10.85
2023-03-07T07:21:33.972Z,13.07
2023-03-07T07:24:02.225Z,11.25
2023-03-07T07:26:30.904Z,10.50
2023-03-07T07:29:00.872Z,11.10
2023-03-07T07:31:30.729Z,12.98
2023-03-07T07:34:00.288Z,11.63
2023-03-07T07:36:30.842Z,11.82
2023-03-07T07:38:59.843Z,10.88
2023-03-07T07:41:28.486Z,11.13
2023-03-07T07:43:57.542Z,11.55
2023-03-07T07:46:31.212Z,12.30
2023-03-07T07:48:59.511Z,10.70
2023-03-07T07:51:28.748Z,12.05
2023-03-07T07:53:57.293Z,10.20
2023-03-07T07:56:25.329Z,11.88
2023-03-07T07:58:54.255Z,10.95
2023-03-07T08:01:24.280Z,8.88
2023-03-07T08:03:54.007Z,10.23
2023-03-07T08:06:25.926Z,8.80
2023-03-07T08:08:54.565Z,7.72
2023-03-07T08:11:23.857Z,7.40
2023-03-07T08:13:52.167Z,8.18
2023-03-07T08:16:24.331Z,7.63
2023-03-07T08:18:55.999Z,8.82
2023-03-07T08:21:25.403Z,8.13
2023-03-07T08:23:55.078Z,8.32
2023-03-07T08:26:23.791Z,8.13
2023-03-07T08:28:51.857Z,7.35
2023-03-07T08:31:23.693Z,8.15
2023-03-07T08:33:53.941Z,7.78
2023-03-07T08:36:22.064Z,8.25
2023-03-07T08:38:52.147Z,7.93
2023-03-07T08:41:21.999Z,8.10
2023-03-07T08:43:50.435Z,8.75
2023-03-07T08:46:18.679Z,9.40
2023-03-07T08:48:46.852Z,7.82
2023-03-07T08:51:17.917Z,7.22
2023-03-07T08:53:47.119Z,8.00
2023-03-07T08:56:17.864Z,7.53
2023-03-07T08:58:46.514Z,6.60
2023-03-07T09:01:14.584Z,7.90
2023-03-07T09:03:44.011Z,7.07
2023-03-07T09:06:18.955Z,6.55
2023-03-07T09:08:47.462Z,7.40
2023-03-07T09:11:15.545Z,7.70
2023-03-07T09:13:51.838Z,7.43
2023-03-07T09:16:22.870Z,6.55
2023-03-07T09:18:51.670Z,6.93
2023-03-07T09:21:21.284Z,6.97
2023-03-07T09:23:49.699Z,7.70
2023-03-07T09:26:18.143Z,6.07
2023-03-07T09:28:46.586Z,7.93
2023-03-07T09:31:16.732Z,6.82
2023-03-07T09:33:46.933Z,6.93
2023-03-07T09:36:17.953Z,6.15
2023-03-07T09:38:48.558Z,7.35
2023-03-07T09:41:36.937Z,6.22
2023-03-07T09:44:16.212Z,7.05
2023-03-07T09:47:34.453Z,6.15
2023-03-07T09:50:04.498Z,6.10
2023-03-07T09:52:40.631Z,5.93
2023-03-07T09:55:14.543Z,5.15
2023-03-07T09:57:50.294Z,5.40
2023-03-07T10:00:25.490Z,5.47
2023-03-07T10:02:59.696Z,6.25
2023-03-07T10:05:33.190Z,5.70
2023-03-07T10:08:02.710Z,5.50
2023-03-07T10:10:40.012Z,5.22
2023-03-07T10:13:23.367Z,4.75
2023-03-07T10:15:55.251Z,5.70
2023-03-07T10:18:32.859Z,6.45
2023-03-07T10:21:08.690Z,6.03
2023-03-07T10:24:01.162Z,5.70
2023-03-07T10:26:35.184Z,5.15
2023-03-07T10:29:14.817Z,6.15
2023-03-07T10:31:48.341Z,5.55
2023-03-07T10:34:26.966Z,5.72
2023-03-07T10:37:08.737Z,6.38
2023-03-07T10:39:43.573Z,5.45
2023-03-07T10:42:15.017Z,6.32
2023-03-07T10:44:45.236Z,5.97
2023-03-07T10:47:21.349Z,4.85
2023-03-07T10:49:52.388Z,7.30
2023-03-07T10:52:30.620Z,6.53
2023-03-07T10:55:31.878Z,6.63
2023-03-07T10:58:16.482Z,6.47
2023-03-07T11:00:45.401Z,6.20
2023-03-07T11:03:27.212Z,6.25
2023-03-07T11:05:55.729Z,6.03
2023-03-07T11:08:29.856Z,6.45
2023-03-07T11:10:58.265Z,6.28
2023-03-07T11:13:28.699Z,6.35
2023-03-07T11:16:12.323Z,6.32
2023-03-07T11:18:43.484Z,6.00
2023-03-07T11:21:29.192Z,5.93
2023-03-07T11:24:05.909Z,5.78
2023-03-07T11:26:39.857Z,6.30
2023-03-07T11:29:12.319Z,5.88
2023-03-07T11:31:51.720Z,6.15
2023-03-07T11:34:33.034Z,5.45
2023-03-07T11:37:14.932Z,6.32
2023-03-07T11:39:50.730Z,5.00
2023-03-07T11:42:25.008Z,5.38
2023-03-07T11:44:58.805Z,6.30
2023-03-07T11:47:39.769Z,6.10
2023-03-07T11:50:27.506Z,7.25
2023-03-07T11:53:26.038Z,6.07
2023-03-07T11:56:07.304Z,5.90
2023-03-07T11:58:52.145Z,6.20
2023-03-07T12:01:28.938Z,6.22
2023-03-07T12:04:22.422Z,5.90
2023-03-07T12:07:04.516Z,5.50
2023-03-07T12:09:46.310Z,6.07
2023-03-07T12:12:25.736Z,5.10
2023-03-07T12:15:03.368Z,6.05
2023-03-07T12:17:45.235Z,6.82
2023-03-07T12:20:32.036Z,5.40
2023-03-07T12:23:17.413Z,5.53
2023-03-07T12:25:49.383Z,5.50
2023-03-07T12:28:24.368Z,5.32
2023-03-07T12:31:03.921Z,5.47
2023-03-07T12:33:50.745Z,6.03
2023-03-07T12:36:26.327Z,5.88
2023-03-07T12:38:59.456Z,5.47
2023-03-07T12:41:43.798Z,6.55
2023-03-07T12:44:18.498Z,4.88
2023-03-07T12:46:52.601Z,5.65
2023-03-07T12:49:33.871Z,5.10
2023-03-07T12:52:07.538Z,4.70
2023-03-07T12:54:39.167Z,4.53
2023-03-07T12:57:14.144Z,5.60
2023-03-07T12:59:45.048Z,4.20
2023-03-07T13:02:16.499Z,4.55
2023-03-07T13:04:46.445Z,4.80
2023-03-07T13:07:17.753Z,4.60
2023-03-07T13:09:48.000Z,3.88
2023-03-07T13:12:40.073Z,4.97
2023-03-07T13:15:32.845Z,4.45
2023-03-07T13:18:02.276Z,4.93
2023-03-07T13:20:47.076Z,4.43
2023-03-07T13:23:28.386Z,3.95
2023-03-07T13:25:59.434Z,4.43
2023-03-07T13:28:52.050Z,3.90
2023-03-07T13:31:43.852Z,4.00
2023-03-07T13:34:46.474Z,4.07
2023-03-07T13:37:50.055Z,3.50
2023-03-07T13:40:44.000Z,4.25
2023-03-07T13:43:57.867Z,4.63
2023-03-07T13:46:51.936Z,5.43
2023-03-07T13:49:45.944Z,3.90
2023-03-07T13:52:48.321Z,3.20
2023-03-07T13:55:31.746Z,4.18
2023-03-07T13:58:08.660Z,4.15
2023-03-07T14:00:42.383Z,4.70
2023-03-07T14:03:29.955Z,4.47
2023-03-07T14:06:02.045Z,4.05
2023-03-07T14:08:34.595Z,4.63
2023-03-07T14:11:05.075Z,5.15
2023-03-07T14:13:56.264Z,5.35
2023-03-07T14:16:37.633Z,4.40
2023-03-07T14:19:16.123Z,4.03
2023-03-07T14:21:53.787Z,5.00
2023-03-07T14:24:41.827Z,4.65
2023-03-07T14:27:15.389Z,3.75
2023-03-07T14:29:50.869Z,4.40
2023-03-07T14:32:28.111Z,4.00
2023-03-07T14:34:56.529Z,4.53
2023-03-07T14:37:27.476Z,4.95
2023-03-07T14:40:09.987Z,4.53
2023-03-07T14:42:47.428Z,5.38
2023-03-07T14:45:24.529Z,5.18
2023-03-07T14:48:17.852Z,4.55
2023-03-07T14:50:46.612Z,4.15
2023-03-07T14:53:20.555Z,3.72
2023-03-07T14:55:51.099Z,5.20
2023-03-07T14:58:22.619Z,5.05
2023-03-07T15:00:58.912Z,5.25
2023-03-07T15:03:27.134Z,5.10
2023-03-07T15:05:57.550Z,5.13
2023-03-07T15:08:28.514Z,4.35
2023-03-07T15:11:01.691Z,4.68
2023-03-07T15:13:40.133Z,4.30
2023-03-07T15:16:13.672Z,4.75
2023-03-07T15:18:44.966Z,4.70
2023-03-07T15:21:19.043Z,5.10
2023-03-07T15:23:53.939Z,4.85
2023-03-07T15:26:25.139Z,4.95
2023-03-07T15:29:01.794Z,5.07
2023-03-07T15:31:32.077Z,4.60
2023-03-07T15:34:13.598Z,5.00
2023-03-07T15:36:41.496Z,4.53
2023-03-07T15:39:34.826Z,5.43
2023-03-07T15:42:06.228Z,4.80
2023-03-07T15:44:38.162Z,5.68
2023-03-07T15:47:15.020Z,5.45
2023-03-07T15:49:46.212Z,6.88
2023-03-07T15:52:25.739Z,4.88
2023-03-07T15:54:56.015Z,5.25
2023-03-07T15:57:26.351Z,5.10
2023-03-07T16:00:00.428Z,4.50
2023-03-07T16:02:49.546Z,5.80
2023-03-07T16:05:38.448Z,4.88
2023-03-07T16:08:13.109Z,5.90
2023-03-07T16:10:47.771Z,5.47
2023-03-07T16:13:18.319Z,5.72
2023-03-07T16:15:58.481Z,5.15
2023-03-07T16:18:29.983Z,4.90
2023-03-07T16:20:58.198Z,5.68
2023-03-07T16:23:28.695Z,6.15
2023-03-07T16:25:56.808Z,5.85
2023-03-07T16:28:24.971Z,5.80
2023-03-07T16:30:54.522Z,5.22
2023-03-07T16:33:22.719Z,5.28
2023-03-07T16:35:50.769Z,5.50
2023-03-07T16:38:18.722Z,5.25
2023-03-07T16:40:47.014Z,5.85
2023-03-07T16:43:29.367Z,5.15
2023-03-07T16:45:58.748Z,6.47
2023-03-07T16:48:26.944Z,5.57
2023-03-07T16:50:55.298Z,6.35
2023-03-07T16:53:23.155Z,5.80
2023-03-07T16:55:52.284Z,5.55
2023-03-07T16:58:24.265Z,5.93
2023-03-07T17:00:53.046Z,5.68
2023-03-07T17:03:22.852Z,5.32
2023-03-07T17:05:50.909Z,4.90
2023-03-07T17:08:18.990Z,5.78
2023-03-07T17:10:47.073Z,5.82
2023-03-07T17:13:18.451Z,6.00
2023-03-07T17:15:47.060Z,5.63
2023-03-07T17:18:15.294Z,6.03
2023-03-07T17:20:44.799Z,5.57
2023-03-07T17:23:13.456Z,5.50
2023-03-07T17:25:41.577Z,7.03
2023-03-07T17:28:14.866Z,5.85
2023-03-07T17:30:45.652Z,5.63
2023-03-07T17:33:15.218Z,5.30
2023-03-07T17:35:44.607Z,5.57
2023-03-07T17:38:12.707Z,5.50
2023-03-07T17:40:41.222Z,5.90
2023-03-07T17:43:09.403Z,7.07
2023-03-07T17:45:39.671Z,5.78
2023-03-07T17:48:08.397Z,6.35
2023-03-07T17:50:36.567Z,6.10
2023-03-07T17:53:06.277Z,6.25
2023-03-07T17:55:34.385Z,5.68
2023-03-07T17:58:02.641Z,6.00
2023-03-07T18:00:31.025Z,6.10
2023-03-07T18:03:02.361Z,5.72
2023-03-07T18:05:30.417Z,5.95
2023-03-07T18:07:58.851Z,6.70
2023-03-07T18:10:28.440Z,5.90
2023-03-07T18:12:56.491Z,5.55
2023-03-07T18:15:25.506Z,5.68
2023-03-07T18:17:53.515Z,6.80
2023-03-07T18:20:22.411Z,5.95
2023-03-07T18:22:50.636Z,6.68
2023-03-07T18:25:19.333Z,5.72
2023-03-07T18:27:50.110Z,7.18
2023-03-07T18:30:18.771Z,5.78
2023-03-07T18:32:47.215Z,6.97
2023-03-07T18:35:16.705Z,5.53
2023-03-07T18:37:45.522Z,6.07
2023-03-07T18:40:14.793Z,6.25
2023-03-07T18:42:43.486Z,6.68
2023-03-07T18:45:13.843Z,5.60
2023-03-07T18:47:41.928Z,7.60
2023-03-07T18:50:11.661Z,6.72
2023-03-07T18:52:39.751Z,6.72
2023-03-07T18:55:08.759Z,7.90
2023-03-07T18:57:36.826Z,6.82
2023-03-07T19:00:06.364Z,6.15
2023-03-07T19:02:35.740Z,5.95
2023-03-07T19:05:03.970Z,6.00
2023-03-07T19:07:32.087Z,5.53
2023-03-07T19:10:00.217Z,6.20
2023-03-07T19:12:28.289Z,5.95
2023-03-07T19:14:56.751Z,6.07
2023-03-07T19:17:28.773Z,5.82
2023-03-07T19:19:59.432Z,7.05
2023-03-07T19:22:30.305Z,6.07
2023-03-07T19:24:58.591Z,7.13
2023-03-07T19:27:28.196Z,5.95
2023-03-07T19:29:56.716Z,5.70
2023-03-07T19:32:30.032Z,5.75
2023-03-07T19:34:59.827Z,5.90
2023-03-07T19:37:28.352Z,5.35
2023-03-07T19:39:58.800Z,5.32
2023-03-07T19:42:27.567Z,5.05
2023-03-07T19:44:58.018Z,5.78
2023-03-07T19:47:27.661Z,3.58
2023-03-07T19:50:01.940Z,4.32
2023-03-07T19:52:34.372Z,3.65
2023-03-07T19:55:09.954Z,4.45
2023-03-07T19:57:43.982Z,3.85
2023-03-07T20:00:16.086Z,4.28
2023-03-07T20:02:45.591Z,3.72
2023-03-07T20:05:17.597Z,4.25
2023-03-07T20:07:47.918Z,4.03
2023-03-07T20:10:20.662Z,3.95
2023-03-07T20:12:56.293Z,3.67
2023-03-07T20:15:27.136Z,4.30
2023-03-07T20:17:56.893Z,4.60
2023-03-07T20:20:26.681Z,4.10
2023-03-07T20:22:56.913Z,3.75
2023-03-07T20:25:29.747Z,4.30
2023-03-07T20:28:00.830Z,3.70
2023-03-07T20:30:29.277Z,4.10
2023-03-07T20:32:58.096Z,4.53
2023-03-07T20:35:28.615Z,3.75
2023-03-07T20:37:57.122Z,4.68
2023-03-07T20:40:28.013Z,4.63
2023-03-07T20:42:56.319Z,3.78
2023-03-07T20:45:24.775Z,4.55
2023-03-07T20:47:53.705Z,4.00
2023-03-07T20:50:23.641Z,4.18
2023-03-07T20:52:56.421Z,3.60
2023-03-07T20:55:26.468Z,4.10
2023-03-07T20:57:54.687Z,4.40
2023-03-07T21:00:24.160Z,4.97
2023-03-07T21:03:05.169Z,4.57
2023-03-07T21:05:34.209Z,4.70
2023-03-07T21:08:03.754Z,4.88
2023-03-07T21:10:32.109Z,4.00
2023-03-07T21:13:00.313Z,3.95
2023-03-07T21:15:28.479Z,5.10
2023-03-07T21:17:56.647Z,4.05
2023-03-07T21:20:24.870Z,4.80
2023-03-07T21:22:53.015Z,5.13
2023-03-07T21:25:22.846Z,4.43
2023-03-07T21:27:51.022Z,4.28
2023-03-07T21:30:19.525Z,4.25
2023-03-07T21:32:47.817Z,5.38
2023-03-07T21:35:16.189Z,4.68
2023-03-07T21:37:44.377Z,4.55
2023-03-07T21:40:13.815Z,4.78
2023-03-07T21:42:43.886Z,5.63
2023-03-07T21:45:12.363Z,4.70
2023-03-07T21:47:40.760Z,5.45
2023-03-07T21:50:10.093Z,5.07
2023-03-07T21:52:38.202Z,4.45
2023-03-07T21:55:07.364Z,4.35
2023-03-07T21:57:35.675Z,4.60
2023-03-07T22:00:08.445Z,4.43
2023-03-07T22:02:37.465Z,4.57
2023-03-07T22:05:06.418Z,4.13
2023-03-07T22:07:34.700Z,4.57
2023-03-07T22:10:03.147Z,4.40
2023-03-07T22:12:31.628Z,4.80
2023-03-07T22:14:59.759Z,5.28
2023-03-07T22:17:29.310Z,4.80
2023-03-07T22:19:57.333Z,4.30
2023-03-07T22:22:25.453Z,4.85
2023-03-07T22:24:53.585Z,4.65
2023-03-07T22:27:22.850Z,5.03
2023-03-07T22:29:50.850Z,5.20
2023-03-07T22:32:18.997Z,5.45
2023-03-07T22:34:48.531Z,5.32
2023-03-07T22:37:16.639Z,5.28
2023-03-07T22:39:45.039Z,4.32
2023-03-07T22:42:13.316Z,5.40
2023-03-07T22:44:41.449Z,4.55
2023-03-07T22:47:09.694Z,4.60
2023-03-07T22:49:37.812Z,5.13
2023-03-07T22:52:07.431Z,5.40
2023-03-07T22:54:39.294Z,4.60
2023-03-07T22:57:07.568Z,4.70
2023-03-07T22:59:35.671Z,6.15
2023-03-07T23:02:03.891Z,4.38
2023-03-07T23:04:32.071Z,5.40
2023-03-07T23:07:00.124Z,5.03
2023-03-07T23:09:29.632Z,5.07
2023-03-07T23:11:57.758Z,5.20
2023-03-07T23:14:25.938Z,4.68
2023-03-07T23:16:53.970Z,5.45
2023-03-07T23:19:22.050Z,5.63
2023-03-07T23:21:50.440Z,5.90
2023-03-07T23:24:18.485Z,5.70
2023-03-07T23:26:48.788Z,6.45
2023-03-07T23:29:16.883Z,6.40
2023-03-07T23:31:45.432Z,5.45
2023-03-07T23:34:16.790Z,6.57
2023-03-07T23:36:45.327Z,6.38
2023-03-07T23:39:15.201Z,6.10
2023-03-07T23:41:43.305Z,5.82
2023-03-07T23:44:13.294Z,6.20
2023-03-07T23:46:41.435Z,6.82
2023-03-07T23:49:10.651Z,5.85
2023-03-07T23:51:38.705Z,5.75
2023-03-07T23:54:06.903Z,5.85
2023-03-07T23:56:34.883Z,5.90
2023-03-07T23:59:02.931Z,5.78
